Time;durP1;ratioP1;P1;durP2;ratioP2;P2;SDS_P1;SDS_P2;PMS_P1;PMS_P2;Temp;Humidity;BMP_temperature;BMP_pressure;BME280_temperature;BME280_humidity;BME280_pressure;Samples;Min_cycle;Max_cycle;Signal;HPM_P1;HPM_P2
2022/10/13 00:00:27;;;;;;;0.00;0.00;;;;;;;;;;5056082;28;20515;-91
2022/10/13 00:02:53;;;;;;;0.00;0.00;;;;;;;;;;5055545;28;20048;-91
2022/10/13 00:05:20;;;;;;;0.00;0.00;;;;;;;;;;5055613;28;20032;-89
2022/10/13 00:07:46;;;;;;;0.00;0.00;;;;;;;;;;5055464;28;20053;-90
2022/10/13 00:10:12;;;;;;;0.00;0.00;;;;;;;;;;5072375;28;20098;-90
2022/10/13 00:12:38;;;;;;;0.00;0.00;;;;;;;;;;5055781;28;20041;-91
2022/10/13 00:15:06;;;;;;;0.10;0.00;;;;;;;;;;5072154;28;20044;-91
2022/10/13 00:17:32;;;;;;;0.00;0.00;;;;;;;;;;5055480;28;20044;-89
2022/10/13 00:19:59;;;;;;;0.00;0.00;;;;;;;;;;5072124;28;20051;-89
2022/10/13 00:22:27;;;;;;;0.00;0.00;;;;;;;;;;5072148;28;20036;-90
2022/10/13 00:24:53;;;;;;;0.00;0.00;;;;;;;;;;5055651;28;20430;-89
2022/10/13 00:27:19;;;;;;;0.00;0.00;;;;;;;;;;5072456;28;20048;-90
2022/10/13 00:29:45;;;;;;;0.00;0.00;;;;;;;;;;5074427;28;20098;-90
2022/10/13 00:32:11;;;;;;;0.00;0.00;;;;;;;;;;5075984;28;20047;-89
2022/10/13 00:34:37;;;;;;;0.00;0.00;;;;;;;;;;5075528;28;20048;-90
2022/10/13 00:37:03;;;;;;;0.00;0.00;;;;;;;;;;5076079;28;20049;-89
2022/10/13 00:39:30;;;;;;;0.00;0.00;;;;;;;;;;5058981;28;20056;-89
2022/10/13 00:41:57;;;;;;;0.00;0.00;;;;;;;;;;5075657;28;20044;-89
2022/10/13 00:44:42;;;;;;;0.00;0.00;;;;;;;;;;5058835;28;20467;-90
2022/10/13 00:47:08;;;;;;;0.00;0.00;;;;;;;;;;5075667;28;20534;-90
2022/10/13 00:49:34;;;;;;;0.00;0.00;;;;;;;;;;5075890;28;20040;-90
2022/10/13 00:52:00;;;;;;;0.00;0.00;;;;;;;;;;5075616;28;20044;-89
2022/10/13 00:54:26;;;;;;;0.00;0.00;;;;;;;;;;5075401;28;20041;-89
2022/10/13 00:56:53;;;;;;;0.00;0.00;;;;;;;;;;5058672;28;20107;-90
2022/10/13 00:59:22;;;;;;;0.00;0.00;;;;;;;;;;5075285;28;20119;-88
2022/10/13 01:01:48;;;;;;;0.00;0.00;;;;;;;;;;5075697;28;20052;-91
2022/10/13 01:04:16;;;;;;;0.00;0.00;;;;;;;;;;5075326;28;20040;-90
2022/10/13 01:06:42;;;;;;;0.00;0.00;;;;;;;;;;5075390;28;20068;-90
2022/10/13 01:09:08;;;;;;;0.00;0.00;;;;;;;;;;5058671;28;20040;-89
2022/10/13 01:11:53;;;;;;;0.00;0.00;;;;;;;;;;5058972;28;20155;-91
2022/10/13 01:14:28;;;;;;;0.00;0.00;;;;;;;;;;5075056;28;20045;-91
2022/10/13 01:16:54;;;;;;;;;;;;;;;;;;5075856;28;20456;-90
2022/10/13 01:19:26;;;;;;;0.00;0.00;;;;;;;;;;5075157;28;19974;-90
2022/10/13 01:22:00;;;;;;;0.00;0.00;;;;;;;;;;5075014;28;20044;-91
2022/10/13 01:24:56;;;;;;;0.00;0.00;;;;;;;;;;5058164;28;20047;-90
2022/10/13 01:27:38;;;;;;;0.00;0.00;;;;;;;;;;5070699;28;20048;-91
2022/10/13 01:30:10;;;;;;;0.00;0.00;;;;;;;;;;5058245;28;20110;-90
2022/10/13 01:32:36;;;;;;;0.00;0.00;;;;;;;;;;5075468;28;20399;-90
2022/10/13 01:35:09;;;;;;;0.00;0.00;;;;;;;;;;5058812;28;20045;-88
2022/10/13 01:37:48;;;;;;;0.00;0.00;;;;;;;;;;5075053;28;20094;-89
2022/10/13 01:40:25;;;;;;;0.00;0.00;;;;;;;;;;5073397;28;20046;-89
2022/10/13 01:43:00;;;;;;;0.00;0.00;;;;;;;;;;5074506;28;20072;-89
2022/10/13 01:45:31;;;;;;;0.00;0.00;;;;;;;;;;5058292;28;20117;-89
2022/10/13 01:48:00;;;;;;;0.00;0.00;;;;;;;;;;5074533;28;20040;-89
2022/10/13 01:50:26;;;;;;;0.00;0.00;;;;;;;;;;5058139;28;20037;-89
2022/10/13 01:52:53;;;;;;;0.00;0.00;;;;;;;;;;5057667;28;20118;-89
2022/10/13 01:55:19;;;;;;;0.00;0.00;;;;;;;;;;5074366;28;20050;-91
2022/10/13 01:57:45;;;;;;;0.00;0.00;;;;;;;;;;5074430;28;20119;-90
2022/10/13 02:00:11;;;;;;;0.00;0.00;;;;;;;;;;5074068;28;20496;-89
2022/10/13 02:02:42;;;;;;;0.00;0.00;;;;;;;;;;5074182;28;20044;-90
2022/10/13 02:05:14;;;;;;;0.00;0.00;;;;;;;;;;5073829;28;20044;-89
2022/10/13 02:07:44;;;;;;;0.00;0.00;;;;;;;;;;5073893;28;20504;-91
2022/10/13 02:10:14;;;;;;;0.00;0.00;;;;;;;;;;5073997;28;20036;-89
2022/10/13 02:12:48;;;;;;;0.00;0.00;;;;;;;;;;5073929;28;20488;-91
2022/10/13 02:15:17;;;;;;;0.00;0.00;;;;;;;;;;5069138;28;20041;-91
2022/10/13 02:17:43;;;;;;;0.00;0.00;;;;;;;;;;5073977;28;20040;-92
2022/10/13 02:20:09;;;;;;;0.00;0.00;;;;;;;;;;5073606;28;20051;-90
2022/10/13 02:22:41;;;;;;;0.00;0.00;;;;;;;;;;5073618;28;20439;-89
2022/10/13 02:25:10;;;;;;;0.00;0.00;;;;;;;;;;5073908;28;20133;-89
2022/10/13 02:27:37;;;;;;;0.00;0.00;;;;;;;;;;5073833;28;20036;-89
2022/10/13 02:30:06;;;;;;;0.00;0.00;;;;;;;;;;5073181;28;20036;-88
2022/10/13 02:32:32;;;;;;;0.00;0.00;;;;;;;;;;5073806;28;20044;-90
2022/10/13 02:34:58;;;;;;;0.00;0.00;;;;;;;;;;5056687;28;20040;-89
2022/10/13 02:37:24;;;;;;;0.00;0.00;;;;;;;;;;5073415;28;20052;-90
2022/10/13 02:39:51;;;;;;;0.00;0.00;;;;;;;;;;5073346;28;20043;-90
2022/10/13 02:42:17;;;;;;;1.23;0.30;;;;;;;;;;5073362;28;20059;-88
2022/10/13 02:44:42;;;;;;;0.00;0.00;;;;;;;;;;5072888;28;20067;-91
2022/10/13 02:47:08;;;;;;;0.00;0.00;;;;;;;;;;5073355;28;20051;-89
2022/10/13 02:49:34;;;;;;;0.00;0.00;;;;;;;;;;5056719;28;20127;-89
2022/10/13 02:52:00;;;;;;;0.00;0.00;;;;;;;;;;5073125;28;20476;-89
2022/10/13 02:54:28;;;;;;;0.00;0.00;;;;;;;;;;5056184;28;20048;-89
2022/10/13 02:56:54;;;;;;;0.00;0.00;;;;;;;;;;5073271;28;20123;-89
2022/10/13 02:59:19;;;;;;;0.00;0.00;;;;;;;;;;5073302;28;20083;-88
2022/10/13 03:01:45;;;;;;;0.00;0.00;;;;;;;;;;5072542;28;20049;-90
2022/10/13 03:04:12;;;;;;;0.00;0.00;;;;;;;;;;5056120;28;20044;-90
2022/10/13 03:06:38;;;;;;;0.28;0.00;;;;;;;;;;5072542;28;20067;-89
2022/10/13 03:09:04;;;;;;;0.00;0.00;;;;;;;;;;5072834;28;20045;-89
2022/10/13 03:11:48;;;;;;;0.00;0.00;;;;;;;;;;5058751;28;20048;-90
2022/10/13 03:14:14;;;;;;;0.00;0.00;;;;;;;;;;5055673;28;20043;-89
2022/10/13 03:16:40;;;;;;;0.00;0.00;;;;;;;;;;5055897;28;20044;-89
2022/10/13 03:19:06;;;;;;;0.00;0.00;;;;;;;;;;5072466;28;20127;-89
2022/10/13 03:21:32;;;;;;;0.00;0.00;;;;;;;;;;5072603;28;20049;-88
2022/10/13 03:23:58;;;;;;;0.00;0.00;;;;;;;;;;5055958;28;20037;-89
2022/10/13 03:26:24;;;;;;;0.00;0.00;;;;;;;;;;5072283;28;20044;-90
2022/10/13 03:28:50;;;;;;;0.00;0.00;;;;;;;;;;5055742;28;20043;-89
2022/10/13 03:31:16;;;;;;;0.00;0.00;;;;;;;;;;5072060;28;20036;-90
2022/10/13 03:33:42;;;;;;;0.00;0.00;;;;;;;;;;5072352;28;20040;-91
2022/10/13 03:36:10;;;;;;;0.00;0.00;;;;;;;;;;5072279;28;20036;-90
2022/10/13 03:38:36;;;;;;;0.00;0.00;;;;;;;;;;5055915;28;20041;-90
2022/10/13 03:41:10;;;;;;;0.00;0.00;;;;;;;;;;5072465;28;20036;-89
2022/10/13 03:43:36;;;;;;;0.00;0.00;;;;;;;;;;5072174;28;20048;-89
2022/10/13 03:46:02;;;;;;;0.10;0.10;;;;;;;;;;5071965;28;20072;-88
2022/10/13 03:48:29;;;;;;;0.00;0.00;;;;;;;;;;5072519;28;20499;-89
2022/10/13 03:50:55;;;;;;;0.00;0.00;;;;;;;;;;5055718;28;20037;-90
2022/10/13 03:53:21;;;;;;;0.00;0.00;;;;;;;;;;5055734;28;20036;-89
2022/10/13 03:55:51;;;;;;;0.00;0.00;;;;;;;;;;5055283;28;20106;-90
2022/10/13 03:58:18;;;;;;;0.00;0.00;;;;;;;;;;5055532;28;20066;-89
2022/10/13 04:00:45;;;;;;;0.00;0.00;;;;;;;;;;5072351;28;20048;-90
2022/10/13 04:03:11;;;;;;;0.00;0.00;;;;;;;;;;5072672;28;20480;-89
2022/10/13 04:05:38;;;;;;;0.00;0.00;;;;;;;;;;5076222;28;20123;-90
2022/10/13 04:08:04;;;;;;;0.00;0.00;;;;;;;;;;5059480;28;20106;-91
2022/10/13 04:10:30;;;;;;;0.00;0.00;;;;;;;;;;5059517;28;20086;-90
2022/10/13 04:12:56;;;;;;;0.00;0.00;;;;;;;;;;5075989;28;20036;-91
2022/10/13 04:15:22;;;;;;;0.00;0.00;;;;;;;;;;5076169;28;20040;-89
2022/10/13 04:17:49;;;;;;;0.00;0.00;;;;;;;;;;5076345;28;20040;-88
2022/10/13 04:20:15;;;;;;;0.00;0.00;;;;;;;;;;5059400;28;20216;-90
2022/10/13 04:22:41;;;;;;;0.00;0.00;;;;;;;;;;5076048;28;20402;-90
2022/10/13 04:25:08;;;;;;;0.00;0.00;;;;;;;;;;5059444;28;20480;-91
2022/10/13 04:27:37;;;;;;;0.00;0.00;;;;;;;;;;5076134;28;20055;-91
2022/10/13 04:30:03;;;;;;;0.00;0.00;;;;;;;;;;5059440;28;20068;-90
2022/10/13 04:32:29;;;;;;;0.00;0.00;;;;;;;;;;5075836;28;20068;-89
2022/10/13 04:34:55;;;;;;;0.00;0.00;;;;;;;;;;5075967;28;20464;-90
2022/10/13 04:37:22;;;;;;;0.00;0.00;;;;;;;;;;5075940;28;20346;-89
2022/10/13 04:39:48;;;;;;;0.00;0.00;;;;;;;;;;5059268;28;20040;-87
2022/10/13 04:42:13;;;;;;;0.00;0.00;;;;;;;;;;5058887;28;20132;-88
2022/10/13 04:44:39;;;;;;;0.00;0.00;;;;;;;;;;5076194;28;20427;-92
2022/10/13 04:47:05;;;;;;;0.00;0.00;;;;;;;;;;5076835;28;20094;-90
2022/10/13 04:49:31;;;;;;;0.00;0.00;;;;;;;;;;5059527;28;20037;-90
2022/10/13 04:51:57;;;;;;;0.00;0.00;;;;;;;;;;5064781;28;20122;-94
2022/10/13 04:54:24;;;;;;;0.00;0.00;;;;;;;;;;5062350;28;20051;-91
2022/10/13 04:56:52;;;;;;;0.00;0.00;;;;;;;;;;5059376;28;20047;-94
2022/10/13 04:59:18;;;;;;;0.00;0.00;;;;;;;;;;5076275;28;20044;-93
2022/10/13 05:01:44;;;;;;;0.00;0.00;;;;;;;;;;5074293;28;20162;-92
2022/10/13 05:04:11;;;;;;;0.00;0.00;;;;;;;;;;5060150;28;20129;-92
2022/10/13 05:06:38;;;;;;;0.00;0.00;;;;;;;;;;5075437;28;20057;-91
2022/10/13 05:09:04;;;;;;;0.05;0.03;;;;;;;;;;5058581;28;20049;-92
2022/10/13 05:11:31;;;;;;;0.00;0.00;;;;;;;;;;5074909;28;20143;-93
2022/10/13 05:13:57;;;;;;;0.00;0.00;;;;;;;;;;5075002;28;20475;-94
2022/10/13 05:16:23;;;;;;;0.00;0.00;;;;;;;;;;5075074;28;20045;-94
2022/10/13 05:18:50;;;;;;;0.00;0.00;;;;;;;;;;5058845;28;20037;-91
2022/10/13 05:21:18;;;;;;;0.00;0.00;;;;;;;;;;5058564;28;20116;-91
2022/10/13 05:23:44;;;;;;;0.00;0.00;;;;;;;;;;5058631;28;20044;-93
2022/10/13 05:26:12;;;;;;;0.00;0.00;;;;;;;;;;5058510;28;20075;-93
2022/10/13 05:28:41;;;;;;;0.00;0.00;;;;;;;;;;5076335;28;20044;-91
2022/10/13 05:31:08;;;;;;;0.47;0.28;;;;;;;;;;5057743;28;20086;-93
2022/10/13 05:33:34;;;;;;;0.00;0.00;;;;;;;;;;5074944;28;20044;-92
2022/10/13 05:36:11;;;;;;;0.00;0.00;;;;;;;;;;5074836;28;20051;-92
2022/10/13 05:38:37;;;;;;;0.32;0.00;;;;;;;;;;5058037;28;20052;-91
2022/10/13 05:41:07;;;;;;;0.00;0.00;;;;;;;;;;5059016;28;20040;-91
2022/10/13 05:43:33;;;;;;;0.00;0.00;;;;;;;;;;5074774;28;20044;-92
2022/10/13 05:45:59;;;;;;;0.00;0.00;;;;;;;;;;5075538;28;20119;-91
2022/10/13 05:48:26;;;;;;;0.00;0.00;;;;;;;;;;5058900;28;20044;-91
2022/10/13 05:50:52;;;;;;;0.00;0.00;;;;;;;;;;5066345;28;20041;-91
2022/10/13 05:53:18;;;;;;;0.00;0.00;;;;;;;;;;5080098;28;20046;-92
2022/10/13 05:55:44;;;;;;;0.00;0.00;;;;;;;;;;5076902;28;20127;-91
2022/10/13 05:58:10;;;;;;;0.00;0.00;;;;;;;;;;5058507;28;20045;-94
2022/10/13 06:00:36;;;;;;;0.00;0.00;;;;;;;;;;5075328;28;20070;-94
2022/10/13 06:03:08;;;;;;;0.00;0.00;;;;;;;;;;5084046;28;20070;-93
2022/10/13 06:05:34;;;;;;;0.00;0.00;;;;;;;;;;5063359;28;20448;-92
2022/10/13 06:08:00;;;;;;;0.00;0.00;;;;;;;;;;5062224;28;20106;-91
2022/10/13 06:10:26;;;;;;;0.00;0.00;;;;;;;;;;5084226;28;20040;-87
2022/10/13 06:12:52;;;;;;;0.00;0.00;;;;;;;;;;5062464;28;20053;-93
2022/10/13 06:15:18;;;;;;;0.00;0.00;;;;;;;;;;5080030;28;20045;-90
2022/10/13 06:17:44;;;;;;;0.00;0.00;;;;;;;;;;5078706;28;20123;-91
2022/10/13 06:20:11;;;;;;;0.00;0.00;;;;;;;;;;5094195;28;20123;-92
2022/10/13 06:22:38;;;;;;;0.00;0.00;;;;;;;;;;5092212;28;20094;-91
2022/10/13 06:25:05;;;;;;;0.00;0.00;;;;;;;;;;5078111;28;20033;-89
2022/10/13 06:27:31;;;;;;;0.00;0.00;;;;;;;;;;5092874;28;20033;-85
2022/10/13 06:35:35;;;;;;;0.00;0.00;;;;;;;;;;5289276;23;20149;-92
2022/10/13 06:46:07;;;;;;;0.00;0.00;;;;;;;;;;5033390;23;20081;-88
2022/10/13 06:48:34;;;;;;;0.00;0.00;;;;;;;;;;5028832;28;20065;-86
2022/10/13 06:51:10;;;;;;;0.32;0.00;;;;;;;;;;5013157;28;20069;-92
2022/10/13 06:53:40;;;;;;;0.00;0.00;;;;;;;;;;5027121;28;20053;-94
2022/10/13 07:19:57;;;;;;;0.00;0.00;;;;;;;;;;5359106;23;20069;-91
2022/10/13 07:22:27;;;;;;;0.00;0.00;;;;;;;;;;5030461;28;20141;-90
2022/10/13 07:25:02;;;;;;;0.00;0.00;;;;;;;;;;5029671;28;20091;-92
2022/10/13 07:27:31;;;;;;;0.15;0.00;;;;;;;;;;5016334;28;20037;-91
2022/10/13 07:30:04;;;;;;;0.10;0.10;;;;;;;;;;5032033;28;20044;-90
2022/10/13 07:32:31;;;;;;;0.00;0.00;;;;;;;;;;5017856;28;20096;-90
2022/10/13 07:35:21;;;;;;;0.00;0.00;;;;;;;;;;5012149;28;20106;-87
2022/10/13 07:38:17;;;;;;;0.00;0.00;;;;;;;;;;5028529;28;20030;-86
2022/10/13 07:40:43;;;;;;;0.00;0.00;;;;;;;;;;5019758;28;20057;-92
2022/10/13 07:43:09;;;;;;;0.00;0.00;;;;;;;;;;5016322;28;20145;-90
2022/10/13 07:45:36;;;;;;;0.00;0.00;;;;;;;;;;5014277;28;20112;-93
2022/10/13 07:48:02;;;;;;;0.00;0.00;;;;;;;;;;4995752;28;20465;-93
2022/10/13 07:50:28;;;;;;;0.00;0.00;;;;;;;;;;5012520;28;20117;-93
2022/10/13 07:52:54;;;;;;;0.00;0.00;;;;;;;;;;5013105;28;20494;-95
2022/10/13 07:55:20;;;;;;;0.00;0.00;;;;;;;;;;4996660;28;20042;-93
2022/10/13 07:57:46;;;;;;;0.00;0.00;;;;;;;;;;5013796;28;20053;-94
2022/10/13 08:00:12;;;;;;;0.00;0.00;;;;;;;;;;4996968;28;20440;-94
2022/10/13 08:02:38;;;;;;;0.00;0.00;;;;;;;;;;4996667;28;20046;-95
2022/10/13 08:05:05;;;;;;;0.00;0.00;;;;;;;;;;5013080;28;20053;-95
2022/10/13 08:07:31;;;;;;;0.00;0.00;;;;;;;;;;5013070;28;20425;-92
2022/10/13 08:09:57;;;;;;;0.55;0.55;;;;;;;;;;5014688;28;20038;-93
2022/10/13 08:12:30;;;;;;;0.00;0.00;;;;;;;;;;5007906;28;20030;-91
2022/10/13 08:28:50;;;;;;;0.00;0.00;;;;;;;;;;5627866;23;20128;-93
2022/10/13 08:31:16;;;;;;;0.00;0.00;;;;;;;;;;4969161;28;20046;-93
2022/10/13 08:33:42;;;;;;;0.00;0.00;;;;;;;;;;4970023;28;20100;-92
2022/10/13 08:36:11;;;;;;;0.00;0.00;;;;;;;;;;4977970;28;20043;-91
2022/10/13 08:38:40;;;;;;;0.00;0.00;;;;;;;;;;4960735;28;20039;-84
2022/10/13 08:41:16;;;;;;;0.00;0.00;;;;;;;;;;4975753;28;20073;-87
2022/10/13 08:43:45;;;;;;;0.00;0.00;;;;;;;;;;4960277;28;20054;-93
2022/10/13 08:46:12;;;;;;;0.00;0.00;;;;;;;;;;4976876;28;20125;-91
2022/10/13 08:48:41;;;;;;;0.00;0.00;;;;;;;;;;4976955;28;20034;-91
2022/10/13 08:51:07;;;;;;;0.00;0.00;;;;;;;;;;4963471;28;20070;-92
2022/10/13 08:53:35;;;;;;;0.00;0.00;;;;;;;;;;4980033;28;20137;-91
2022/10/13 08:56:10;;;;;;;0.00;0.00;;;;;;;;;;4980397;28;20085;-91
2022/10/13 08:58:37;;;;;;;0.00;0.00;;;;;;;;;;4980530;28;20054;-91
2022/10/13 09:01:10;;;;;;;0.00;0.00;;;;;;;;;;4963863;28;20088;-91
2022/10/13 09:03:48;;;;;;;0.00;0.00;;;;;;;;;;4963982;28;20042;-91
2022/10/13 09:06:28;;;;;;;0.00;0.00;;;;;;;;;;4963764;28;20096;-90
2022/10/13 09:08:55;;;;;;;0.00;0.00;;;;;;;;;;4964225;28;20072;-89
2022/10/13 09:11:22;;;;;;;0.00;0.00;;;;;;;;;;4964001;28;20125;-93
2022/10/13 09:13:48;;;;;;;0.00;0.00;;;;;;;;;;4963841;28;20065;-89
2022/10/13 09:16:14;;;;;;;0.00;0.00;;;;;;;;;;4979373;28;20042;-86
2022/10/13 09:18:40;;;;;;;0.00;0.00;;;;;;;;;;4979682;28;20049;-90
2022/10/13 09:21:09;;;;;;;0.70;0.32;;;;;;;;;;4979865;28;20508;-92
2022/10/13 09:23:35;;;;;;;0.00;0.00;;;;;;;;;;4962945;28;20042;-85
2022/10/13 09:26:06;;;;;;;0.00;0.00;;;;;;;;;;4979558;28;20122;-91
2022/10/13 09:28:32;;;;;;;0.00;0.00;;;;;;;;;;4963226;28;20442;-92
2022/10/13 09:31:06;;;;;;;0.00;0.00;;;;;;;;;;4964441;28;20070;-91
2022/10/13 09:33:36;;;;;;;0.00;0.00;;;;;;;;;;4946680;28;20046;-91
2022/10/13 09:36:02;;;;;;;0.00;0.00;;;;;;;;;;4937152;29;20047;-90
2022/10/13 09:38:29;;;;;;;0.00;0.00;;;;;;;;;;4940975;29;20043;-88
2022/10/13 09:41:00;;;;;;;0.32;0.10;;;;;;;;;;4940899;29;20047;-91
2022/10/13 09:43:40;;;;;;;0.00;0.00;;;;;;;;;;4940722;29;20079;-90
2022/10/13 09:46:18;;;;;;;0.00;0.00;;;;;;;;;;4940379;29;20043;-90
2022/10/13 09:48:47;;;;;;;0.00;0.00;;;;;;;;;;4940307;29;20075;-91
2022/10/13 09:51:29;;;;;;;0.00;0.00;;;;;;;;;;4954613;28;20491;-91
2022/10/13 09:53:55;;;;;;;0.00;0.00;;;;;;;;;;4959376;28;20058;-90
2022/10/13 09:56:35;;;;;;;0.00;0.00;;;;;;;;;;4959665;28;20062;-90
2022/10/13 09:59:23;;;;;;;0.00;0.00;;;;;;;;;;4959852;28;20047;-88
2022/10/13 10:01:51;;;;;;;0.00;0.00;;;;;;;;;;4958516;28;20482;-91
2022/10/13 10:04:21;;;;;;;0.00;0.00;;;;;;;;;;4959190;28;20046;-87
2022/10/13 10:06:47;;;;;;;0.00;0.00;;;;;;;;;;4959459;28;20043;-91
2022/10/13 10:09:32;;;;;;;0.00;0.00;;;;;;;;;;4959332;28;20075;-91
2022/10/13 10:11:59;;;;;;;0.00;0.00;;;;;;;;;;4959280;28;20126;-89
2022/10/13 10:14:27;;;;;;;0.00;0.00;;;;;;;;;;4943209;28;20047;-90
2022/10/13 10:16:53;;;;;;;0.00;0.00;;;;;;;;;;4959111;28;20101;-92
2022/10/13 10:19:38;;;;;;;0.00;0.00;;;;;;;;;;4959187;28;20146;-90
2022/10/13 10:22:23;;;;;;;0.00;0.00;;;;;;;;;;4959486;28;20054;-89
2022/10/13 10:24:52;;;;;;;0.00;0.00;;;;;;;;;;4959031;28;20042;-90
2022/10/13 10:27:40;;;;;;;0.00;0.00;;;;;;;;;;4959697;28;20390;-92
2022/10/13 10:30:13;;;;;;;0.00;0.00;;;;;;;;;;4958613;28;20066;-90
2022/10/13 10:32:42;;;;;;;0.00;0.00;;;;;;;;;;4959888;28;20054;-90
2022/10/13 10:35:13;;;;;;;0.00;0.00;;;;;;;;;;4960741;28;20082;-91
2022/10/13 10:37:46;;;;;;;0.00;0.00;;;;;;;;;;4959291;28;20307;-91
2022/10/13 10:40:35;;;;;;;0.00;0.00;;;;;;;;;;4958408;28;20101;-90
2022/10/13 10:43:14;;;;;;;0.00;0.00;;;;;;;;;;4948837;28;20046;-92
2022/10/13 10:45:40;;;;;;;0.00;0.00;;;;;;;;;;4958348;28;20039;-91
2022/10/13 10:48:25;;;;;;;0.00;0.00;;;;;;;;;;4959197;28;20089;-90
2022/10/13 10:50:51;;;;;;;0.00;0.00;;;;;;;;;;4958240;28;20074;-92
2022/10/13 10:53:36;;;;;;;0.00;0.00;;;;;;;;;;4958857;28;20115;-90
2022/10/13 10:56:05;;;;;;;0.00;0.00;;;;;;;;;;4958888;28;20039;-91
2022/10/13 10:58:31;;;;;;;0.00;0.00;;;;;;;;;;4958699;28;20046;-90
2022/10/13 11:01:07;;;;;;;0.00;0.00;;;;;;;;;;4958141;28;20042;-90
2022/10/13 11:03:36;;;;;;;0.00;0.00;;;;;;;;;;4958179;28;20110;-89
2022/10/13 11:06:02;;;;;;;0.00;0.00;;;;;;;;;;4958111;28;20113;-91
2022/10/13 11:08:30;;;;;;;0.00;0.00;;;;;;;;;;4958703;28;20487;-91
2022/10/13 11:11:14;;;;;;;0.13;0.00;;;;;;;;;;4958425;28;20769;-92
2022/10/13 11:13:49;;;;;;;0.00;0.00;;;;;;;;;;4958386;28;20047;-91
2022/10/13 11:16:34;;;;;;;0.00;0.00;;;;;;;;;;4958627;28;20046;-91
2022/10/13 11:19:04;;;;;;;0.00;0.00;;;;;;;;;;4958370;28;20061;-92
2022/10/13 11:21:49;;;;;;;0.00;0.00;;;;;;;;;;4958397;28;20053;-90
2022/10/13 11:24:45;;;;;;;0.00;0.00;;;;;;;;;;4958014;28;20050;-90
2022/10/13 11:27:14;;;;;;;0.00;0.00;;;;;;;;;;4934857;28;20050;-91
2022/10/13 11:29:47;;;;;;;0.00;0.00;;;;;;;;;;4957756;28;20050;-92
2022/10/13 11:32:26;;;;;;;0.10;0.00;;;;;;;;;;4958518;28;20055;-92
2022/10/13 11:35:04;;;;;;;0.00;0.00;;;;;;;;;;4957939;28;20490;-90
2022/10/13 11:37:39;;;;;;;0.32;0.10;;;;;;;;;;4958124;28;20390;-92
2022/10/13 11:40:15;;;;;;;0.00;0.00;;;;;;;;;;4957939;28;20035;-93
2022/10/13 11:42:53;;;;;;;0.00;0.00;;;;;;;;;;4957688;28;20043;-90
2022/10/13 11:45:27;;;;;;;0.10;0.00;;;;;;;;;;4957850;28;20097;-91
2022/10/13 11:47:54;;;;;;;0.00;0.00;;;;;;;;;;4958030;28;20046;-92
2022/10/13 11:50:29;;;;;;;0.00;0.00;;;;;;;;;;4957634;28;20039;-91
2022/10/13 11:53:04;;;;;;;0.00;0.00;;;;;;;;;;4958060;28;20383;-91
2022/10/13 11:55:42;;;;;;;0.10;0.00;;;;;;;;;;4957737;28;20054;-92
2022/10/13 11:58:19;;;;;;;0.00;0.00;;;;;;;;;;4957602;28;20097;-90
2022/10/13 12:00:54;;;;;;;0.00;0.00;;;;;;;;;;4957680;28;20042;-91
2022/10/13 12:03:21;;;;;;;0.00;0.00;;;;;;;;;;4957615;28;20088;-92
2022/10/13 12:05:48;;;;;;;0.00;0.00;;;;;;;;;;4957384;28;20038;-91
2022/10/13 12:08:15;;;;;;;0.00;0.00;;;;;;;;;;4958338;28;20038;-90
2022/10/13 12:10:41;;;;;;;0.00;0.00;;;;;;;;;;4957369;28;20480;-92
2022/10/13 12:13:10;;;;;;;0.00;0.00;;;;;;;;;;4957834;28;20090;-93
2022/10/13 12:15:36;;;;;;;0.00;0.00;;;;;;;;;;4957627;28;20047;-93
2022/10/13 12:18:02;;;;;;;0.00;0.00;;;;;;;;;;4957362;28;20054;-93
2022/10/13 12:20:30;;;;;;;0.00;0.00;;;;;;;;;;4957707;28;20482;-90
2022/10/13 12:22:56;;;;;;;0.00;0.00;;;;;;;;;;4957170;28;20506;-88
2022/10/13 12:25:24;;;;;;;0.00;0.00;;;;;;;;;;4958977;28;20046;-93
2022/10/13 12:27:52;;;;;;;0.10;0.05;;;;;;;;;;4965568;28;20039;-90
2022/10/13 12:30:35;;;;;;;0.00;0.00;;;;;;;;;;4965767;28;20054;-91
2022/10/13 12:33:02;;;;;;;0.00;0.00;;;;;;;;;;4961528;28;20490;-92
2022/10/13 12:35:29;;;;;;;0.05;0.00;;;;;;;;;;4961168;28;20047;-92
2022/10/13 12:37:55;;;;;;;0.20;0.00;;;;;;;;;;4961367;28;20053;-90
2022/10/13 12:40:22;;;;;;;0.00;0.00;;;;;;;;;;4961333;28;20046;-92
2022/10/13 12:42:49;;;;;;;0.00;0.00;;;;;;;;;;4961261;28;20513;-89
2022/10/13 12:45:16;;;;;;;0.00;0.00;;;;;;;;;;4960864;28;20054;-91
2022/10/13 12:47:47;;;;;;;0.00;0.00;;;;;;;;;;4961002;28;20066;-90
2022/10/13 12:50:20;;;;;;;0.00;0.00;;;;;;;;;;4961245;28;20049;-93
2022/10/13 12:52:47;;;;;;;0.00;0.00;;;;;;;;;;4960718;28;20046;-91
2022/10/13 12:55:16;;;;;;;0.00;0.00;;;;;;;;;;4960048;28;20039;-87
2022/10/13 12:57:44;;;;;;;0.00;0.00;;;;;;;;;;4960753;28;20561;-90
2022/10/13 13:00:19;;;;;;;0.00;0.00;;;;;;;;;;4944870;28;20049;-89
2022/10/13 13:02:54;;;;;;;0.00;0.00;;;;;;;;;;4960587;28;20038;-90
2022/10/13 13:05:30;;;;;;;0.00;0.00;;;;;;;;;;4945140;28;20101;-91
2022/10/13 13:07:56;;;;;;;0.00;0.00;;;;;;;;;;4960810;28;20046;-90
2022/10/13 13:10:22;;;;;;;0.00;0.00;;;;;;;;;;4944948;28;20041;-89
2022/10/13 13:12:49;;;;;;;0.00;0.00;;;;;;;;;;4960345;28;20046;-91
2022/10/13 13:15:41;;;;;;;0.00;0.00;;;;;;;;;;4960628;28;20047;-89
2022/10/13 13:18:23;;;;;;;0.00;0.00;;;;;;;;;;4956667;28;20082;-91
2022/10/13 13:20:49;;;;;;;0.00;0.00;;;;;;;;;;4944531;28;20054;-89
2022/10/13 13:23:17;;;;;;;0.00;0.00;;;;;;;;;;4944223;28;20110;-91
2022/10/13 13:25:44;;;;;;;0.00;0.00;;;;;;;;;;4944475;28;20125;-91
2022/10/13 13:28:12;;;;;;;0.00;0.00;;;;;;;;;;4960093;28;20039;-93
2022/10/13 13:30:41;;;;;;;0.00;0.00;;;;;;;;;;4960339;28;20047;-90
2022/10/13 13:33:08;;;;;;;0.00;0.00;;;;;;;;;;4960721;28;20141;-91
2022/10/13 13:35:34;;;;;;;0.00;0.00;;;;;;;;;;4944136;28;20049;-92
2022/10/13 13:38:00;;;;;;;0.00;0.00;;;;;;;;;;4960218;28;20046;-90
2022/10/13 13:40:27;;;;;;;0.00;0.00;;;;;;;;;;4944445;28;20047;-91
2022/10/13 13:42:53;;;;;;;0.00;0.00;;;;;;;;;;4959818;28;20054;-89
2022/10/13 13:45:26;;;;;;;0.00;0.00;;;;;;;;;;4943841;28;20125;-90
2022/10/13 13:47:52;;;;;;;0.00;0.00;;;;;;;;;;4959740;28;20483;-90
2022/10/13 13:50:19;;;;;;;0.00;0.00;;;;;;;;;;4943881;28;20045;-91
2022/10/13 13:52:45;;;;;;;0.00;0.00;;;;;;;;;;4959896;28;20487;-89
2022/10/13 13:55:11;;;;;;;0.00;0.00;;;;;;;;;;4959787;28;20045;-90
2022/10/13 13:57:37;;;;;;;0.00;0.00;;;;;;;;;;4959885;28;20469;-90
2022/10/13 14:00:04;;;;;;;0.00;0.00;;;;;;;;;;4959748;28;20106;-89
2022/10/13 14:02:30;;;;;;;0.00;0.00;;;;;;;;;;4943607;28;20495;-92
2022/10/13 14:04:56;;;;;;;0.00;0.00;;;;;;;;;;4959459;28;20053;-91
2022/10/13 14:07:22;;;;;;;0.00;0.00;;;;;;;;;;4959499;28;20114;-90
2022/10/13 14:09:48;;;;;;;0.00;0.00;;;;;;;;;;4959895;28;20077;-87
2022/10/13 14:12:14;;;;;;;0.00;0.00;;;;;;;;;;4939839;28;20050;-90
2022/10/13 14:14:40;;;;;;;0.00;0.00;;;;;;;;;;4940974;29;20102;-90
2022/10/13 14:17:06;;;;;;;0.00;0.00;;;;;;;;;;4940380;29;20039;-91
2022/10/13 14:19:32;;;;;;;0.05;0.00;;;;;;;;;;4952791;28;20052;-91
2022/10/13 14:22:00;;;;;;;0.00;0.00;;;;;;;;;;4944089;28;20080;-92
2022/10/13 14:24:26;;;;;;;0.00;0.00;;;;;;;;;;4942151;28;20045;-92
2022/10/13 14:26:53;;;;;;;0.00;0.00;;;;;;;;;;4959363;28;20038;-92
2022/10/13 14:29:19;;;;;;;0.00;0.00;;;;;;;;;;4943693;28;20095;-87
2022/10/13 14:31:45;;;;;;;0.00;0.00;;;;;;;;;;4959936;28;20053;-92
2022/10/13 14:34:11;;;;;;;0.00;0.00;;;;;;;;;;4926728;29;20035;-92
2022/10/13 14:36:37;;;;;;;0.00;0.00;;;;;;;;;;4940780;29;20487;-91
2022/10/13 14:39:03;;;;;;;0.00;0.00;;;;;;;;;;4940978;29;20094;-92
2022/10/13 14:41:29;;;;;;;0.00;0.00;;;;;;;;;;4925028;29;20368;-92
2022/10/13 14:43:56;;;;;;;0.20;0.13;;;;;;;;;;4940344;29;20043;-93
2022/10/13 14:46:22;;;;;;;0.00;0.00;;;;;;;;;;4940745;29;20039;-91
2022/10/13 14:48:48;;;;;;;0.00;0.00;;;;;;;;;;4954244;28;20513;-91
2022/10/13 14:51:15;;;;;;;0.00;0.00;;;;;;;;;;4959520;28;20070;-92
2022/10/13 14:53:42;;;;;;;0.00;0.00;;;;;;;;;;4943927;28;20268;-91
2022/10/13 14:56:21;;;;;;;0.00;0.00;;;;;;;;;;4991725;28;20047;-93
2022/10/13 14:58:48;;;;;;;0.00;0.00;;;;;;;;;;4959984;28;20561;-92
2022/10/13 15:01:14;;;;;;;0.00;0.00;;;;;;;;;;4959381;28;20081;-90
2022/10/13 15:03:40;;;;;;;0.00;0.00;;;;;;;;;;4958680;28;20043;-89
2022/10/13 15:06:06;;;;;;;0.00;0.00;;;;;;;;;;4961237;28;20134;-92
2022/10/13 15:08:32;;;;;;;0.00;0.00;;;;;;;;;;4963904;28;20026;-91
2022/10/13 15:10:59;;;;;;;0.00;0.00;;;;;;;;;;4963982;28;20053;-92
2022/10/13 15:13:25;;;;;;;0.00;0.00;;;;;;;;;;4964666;28;20066;-91
2022/10/13 15:15:54;;;;;;;0.00;0.00;;;;;;;;;;4965814;28;20070;-92
2022/10/13 15:18:20;;;;;;;0.00;0.00;;;;;;;;;;4966679;28;20486;-92
2022/10/13 15:20:47;;;;;;;0.00;0.00;;;;;;;;;;4946956;28;20057;-93
2022/10/13 15:23:14;;;;;;;0.00;0.00;;;;;;;;;;4943690;28;20038;-90
2022/10/13 15:25:48;;;;;;;0.00;0.00;;;;;;;;;;4959187;28;20509;-84
2022/10/13 15:28:14;;;;;;;0.47;0.45;;;;;;;;;;4944092;28;20038;-93
2022/10/13 15:30:40;;;;;;;0.00;0.00;;;;;;;;;;4961288;28;20113;-93
2022/10/13 15:33:06;;;;;;;0.00;0.00;;;;;;;;;;4953022;28;20172;-93
2022/10/13 15:35:32;;;;;;;0.00;0.00;;;;;;;;;;4966791;28;20046;-94
2022/10/13 15:37:58;;;;;;;0.00;0.00;;;;;;;;;;4965501;28;20119;-94
2022/10/13 15:40:24;;;;;;;0.00;0.00;;;;;;;;;;4961502;28;20042;-92
2022/10/13 15:42:50;;;;;;;0.00;0.00;;;;;;;;;;4960188;28;20042;-93
2022/10/13 15:45:16;;;;;;;0.00;0.00;;;;;;;;;;4957987;28;20066;-93